Time;durP1;ratioP1;P1;durP2;ratioP2;P2;SDS_P1;SDS_P2;PMS_P1;PMS_P2;Temp;Humidity;BMP_temperature;BMP_pressure;BME280_temperature;BME280_humidity;BME280_pressure;Samples;Min_cycle;Max_cycle;Signal;HPM_P1;HPM_P2
2022/01/23 00:02:16;;;;;;;53.77;34.10;;;;;;;;;;5015987;28;20060;-68
2022/01/23 00:04:41;;;;;;;50.50;32.27;;;6.10;99.90;;;;;;5013020;28;20034;-68
2022/01/23 00:07:09;;;;;;;59.33;36.13;;;6.10;99.90;;;;;;5009256;28;20034;-68
2022/01/23 00:09:36;;;;;;;58.20;35.83;;;6.00;99.90;;;;;;5014763;28;20025;-68
2022/01/23 00:12:06;;;;;;;58.90;37.80;;;6.00;99.90;;;;;;5008505;28;20208;-68
2022/01/23 00:17:22;;;;;;;52.50;34.42;;;6.00;99.90;;;;;;5009565;28;20033;-68
2022/01/23 00:19:52;;;;;;;58.60;36.73;;;6.20;99.90;;;;;;4991208;28;20041;-68
2022/01/23 00:22:19;;;;;;;65.00;36.40;;;6.20;99.90;;;;;;5016089;28;20042;-68
2022/01/23 00:30:30;;;;;;;61.40;37.70;;;6.10;99.90;;;;;;5028615;28;20128;-68
2022/01/23 00:32:59;;;;;;;53.87;36.60;;;6.20;99.90;;;;;;5027741;28;20029;-68
2022/01/23 00:35:25;;;;;;;76.30;42.47;;;6.00;99.90;;;;;;5027613;28;20033;-68
2022/01/23 00:37:51;;;;;;;61.93;39.43;;;6.00;99.90;;;;;;5015899;28;20030;-68
2022/01/23 00:40:17;;;;;;;57.00;38.40;;;;;;;;;;5008884;28;20036;-68
2022/01/23 00:42:44;;;;;;;54.83;34.37;;;6.10;99.90;;;;;;5007860;28;20029;-68
2022/01/23 00:47:40;;;;;;;55.07;36.23;;;;;;;;;;5008357;28;20057;-68
2022/01/23 00:50:06;;;;;;;64.97;37.40;;;6.10;99.90;;;;;;5008843;28;20076;-68
2022/01/23 00:52:32;;;;;;;61.07;35.77;;;;;;;;;;5008764;28;20121;-68
2022/01/23 00:55:00;;;;;;;55.67;37.37;;;6.00;99.90;;;;;;5008016;28;20044;-68
2022/01/23 00:57:26;;;;;;;61.23;37.67;;;6.10;99.90;;;;;;5008100;28;20109;-68
2022/01/23 00:59:51;;;;;;;63.33;38.67;;;6.20;99.90;;;;;;5008418;28;20463;-68
2022/01/23 01:02:17;;;;;;;58.83;38.00;;;6.20;99.90;;;;;;5008864;28;20030;-68
2022/01/23 01:04:43;;;;;;;55.43;37.80;;;;;;;;;;5007975;28;20037;-68
2022/01/23 01:07:08;;;;;;;65.53;39.47;;;6.00;99.90;;;;;;5014920;28;20029;-68
2022/01/23 01:09:34;;;;;;;67.70;38.73;;;6.00;99.90;;;;;;5007341;28;20116;-68
2022/01/23 01:12:05;;;;;;;77.40;42.13;;;6.10;99.90;;;;;;5008005;28;20439;-68
2022/01/23 01:30:11;;;;;;;59.33;39.27;;;6.00;99.90;;;;;;4941477;29;20035;-68
2022/01/23 01:31:31;;;;;;;60.03;38.47;;;5.90;99.90;;;;;;4947156;29;20050;-68
2022/01/23 01:36:49;;;;;;;56.20;34.37;;;6.10;99.90;;;;;;4946525;29;20031;-68
2022/01/23 01:39:25;;;;;;;58.87;38.13;;;6.00;99.90;;;;;;4947234;28;20536;-68
2022/01/23 01:41:51;;;;;;;74.33;41.10;;;;;;;;;;4949510;28;20035;-68
2022/01/23 01:44:18;;;;;;;68.23;38.10;;;6.00;99.90;;;;;;4951205;29;20039;-68
2022/01/23 01:46:45;;;;;;;60.70;37.90;;;5.90;99.90;;;;;;4950298;29;20035;-68
2022/01/23 01:49:11;;;;;;;62.57;36.40;;;6.00;99.90;;;;;;4950934;28;20104;-68
2022/01/23 01:51:38;;;;;;;63.40;38.70;;;6.10;99.90;;;;;;4982302;28;20138;-68
2022/01/23 01:54:11;;;;;;;56.63;37.00;;;6.20;99.90;;;;;;5010818;28;20120;-68
2022/01/23 01:56:49;;;;;;;61.35;34.38;;;6.00;99.90;;;;;;4993697;28;20105;-68
2022/01/23 02:09:56;;;;;;;63.08;36.63;;;6.10;99.90;;;;;;5030082;28;20040;-68
2022/01/23 02:17:55;;;;;;;58.80;37.27;;;6.10;99.90;;;;;;5027922;28;20041;-68
2022/01/23 02:55:24;;;;;;;61.47;35.93;;;6.00;99.90;;;;;;5011236;28;20491;-68
2022/01/23 02:58:01;;;;;;;60.63;36.97;;;5.90;99.90;;;;;;5026323;28;20079;-68
2022/01/23 03:00:34;;;;;;;63.70;36.73;;;6.10;99.90;;;;;;5029290;28;20024;-68
2022/01/23 03:03:06;;;;;;;53.73;35.83;;;6.00;99.90;;;;;;5029678;28;20160;-68
2022/01/23 03:10:38;;;;;;;63.97;38.70;;;6.00;99.90;;;;;;5009777;28;20030;-68
2022/01/23 03:13:38;;;;;;;69.47;39.53;;;5.90;99.90;;;;;;5010442;28;20046;-68
2022/01/23 03:27:25;;;;;;;52.90;32.63;;;5.90;99.90;;;;;;4949169;28;20475;-68
2022/01/23 03:29:55;;;;;;;48.67;31.30;;;;;;;;;;4953019;28;20039;-68
2022/01/23 03:32:33;;;;;;;48.77;30.27;;;5.60;99.90;;;;;;4947557;28;20195;-68
2022/01/23 03:34:59;;;;;;;59.67;35.70;;;6.10;99.90;;;;;;4929811;29;20031;-68
2022/01/23 03:37:25;;;;;;;62.37;35.53;;;;;;;;;;4946780;28;20374;-68
2022/01/23 03:39:50;;;;;;;63.50;35.43;;;6.00;99.90;;;;;;4950815;28;20139;-68
2022/01/23 03:42:16;;;;;;;67.47;39.20;;;6.00;99.90;;;;;;4947328;28;20537;-68
2022/01/23 03:44:52;;;;;;;52.87;33.93;;;5.90;99.90;;;;;;4946470;28;20074;-68
2022/01/23 03:47:32;;;;;;;68.40;36.77;;;5.90;99.90;;;;;;4947465;28;20034;-68
2022/01/23 03:49:58;;;;;;;55.43;35.67;;;5.90;99.90;;;;;;4983648;28;20104;-68
2022/01/23 03:52:24;;;;;;;55.47;34.57;;;5.90;99.90;;;;;;5011906;28;20475;-68
2022/01/23 03:54:50;;;;;;;56.70;33.27;;;5.90;99.90;;;;;;5009167;28;20056;-68
2022/01/23 03:57:16;;;;;;;59.40;36.23;;;;;;;;;;5009385;28;20438;-68
2022/01/23 03:59:41;;;;;;;61.70;36.90;;;6.00;99.90;;;;;;5008469;28;20594;-68
2022/01/23 04:02:07;;;;;;;57.97;35.50;;;6.00;99.90;;;;;;5009013;28;20049;-68
2022/01/23 04:04:42;;;;;;;59.97;36.50;;;5.90;99.90;;;;;;5007966;28;20097;-68
2022/01/23 04:07:21;;;;;;;58.87;35.03;;;6.00;99.90;;;;;;5015861;28;20447;-68
2022/01/23 04:09:48;;;;;;;55.13;34.13;;;5.90;99.90;;;;;;5022055;28;20075;-68
2022/01/23 04:12:52;;;;;;;60.93;35.73;;;6.00;99.90;;;;;;5028125;28;20036;-68
2022/01/23 04:45:25;;;;;;;51.17;31.33;;;5.90;99.90;;;;;;5021816;28;20056;-68
2022/01/23 05:01:16;;;;;;;59.37;33.60;;;;;;;;;;5008495;28;20595;-68
2022/01/23 05:06:30;;;;;;;55.13;34.40;;;;;;;;;;5020914;28;20045;-68
2022/01/23 05:08:56;;;;;;;66.27;37.43;;;5.80;99.90;;;;;;5010963;28;20108;-68
2022/01/23 05:11:22;;;;;;;62.90;37.40;;;;;;;;;;5008470;28;20187;-68
2022/01/23 05:13:48;;;;;;;58.57;35.70;;;4.60;99.90;;;;;;4990012;28;20054;-69
2022/01/23 05:16:14;;;;;;;58.37;35.10;;;6.00;99.90;;;;;;5008036;28;20040;-68
2022/01/23 05:18:40;;;;;;;64.20;37.30;;;6.10;99.90;;;;;;5007703;28;20041;-68
2022/01/23 05:21:43;;;;;;;63.37;36.10;;;6.10;99.90;;;;;;5011773;28;20116;-68
2022/01/23 05:23:53;;;;;;;53.37;32.30;;;5.90;99.90;;;;;;5006552;28;20041;-68
2022/01/23 05:26:19;;;;;;;62.73;36.50;;;6.00;99.90;;;;;;5008210;28;20029;-68
2022/01/23 05:28:44;;;;;;;58.03;35.17;;;6.00;99.90;;;;;;5007722;28;20101;-68
2022/01/23 05:31:10;;;;;;;60.07;35.03;;;;;;;;;;5007470;28;20036;-68
2022/01/23 05:33:36;;;;;;;57.97;34.20;;;;;;;;;;5007760;28;20030;-68
2022/01/23 05:36:04;;;;;;;66.23;36.53;;;;;;;;;;5007772;28;20029;-68
2022/01/23 05:38:30;;;;;;;63.53;36.13;;;5.90;99.90;;;;;;5013808;28;20029;-68
2022/01/23 05:40:57;;;;;;;61.63;36.73;;;6.00;99.90;;;;;;5007975;28;20498;-68
2022/01/23 05:43:24;;;;;;;66.10;38.10;;;5.10;99.90;;;;;;5008115;28;20480;-68
2022/01/23 05:45:50;;;;;;;58.60;34.53;;;6.00;99.90;;;;;;5006978;28;20486;-68
2022/01/23 05:48:16;;;;;;;57.93;33.47;;;5.90;99.90;;;;;;5008262;28;20034;-68
2022/01/23 05:50:42;;;;;;;56.70;33.43;;;6.00;99.90;;;;;;5007896;28;20473;-68
2022/01/23 05:53:08;;;;;;;53.60;32.90;;;;;;;;;;5013426;28;20044;-68
2022/01/23 05:55:34;;;;;;;57.93;35.70;;;6.00;99.90;;;;;;5007570;28;20426;-68
2022/01/23 05:58:00;;;;;;;58.73;34.67;;;5.80;99.90;;;;;;5007693;28;20033;-68
2022/01/23 06:00:25;;;;;;;63.93;34.30;;;5.90;99.90;;;;;;5006781;28;20400;-68
2022/01/23 06:02:52;;;;;;;54.07;34.27;;;5.90;99.90;;;;;;5007361;28;20036;-68
2022/01/23 06:05:17;;;;;;;67.77;37.43;;;5.60;99.90;;;;;;5026778;28;20099;-68
2022/01/23 06:07:45;;;;;;;66.17;38.73;;;;;;;;;;5013276;28;20040;-68
2022/01/23 06:10:20;;;;;;;65.43;36.13;;;5.50;99.90;;;;;;5007888;28;20033;-68
2022/01/23 06:12:46;;;;;;;63.93;37.87;;;;;;;;;;5019705;28;20049;-68
2022/01/23 06:15:11;;;;;;;63.93;37.77;;;;;;;;;;5025845;28;20088;-68
2022/01/23 06:17:37;;;;;;;63.80;35.77;;;5.80;99.90;;;;;;5026103;28;20060;-68
2022/01/23 06:20:03;;;;;;;49.60;32.37;;;5.80;99.90;;;;;;5026128;28;20034;-68
2022/01/23 06:22:29;;;;;;;67.27;37.83;;;5.90;99.90;;;;;;4995814;28;20033;-68
2022/01/23 06:24:55;;;;;;;55.97;34.17;;;;;;;;;;5007417;28;20030;-68
2022/01/23 06:27:21;;;;;;;66.80;37.47;;;5.90;99.90;;;;;;5011350;28;20025;-68
2022/01/23 06:29:46;;;;;;;62.90;36.17;;;;;;;;;;5009578;28;20045;-68
2022/01/23 06:32:13;;;;;;;58.80;34.83;;;5.90;99.90;;;;;;5010886;28;20353;-68
2022/01/23 06:34:38;;;;;;;59.17;33.73;;;5.80;99.90;;;;;;5010398;28;20034;-68
2022/01/23 06:37:05;;;;;;;56.73;32.23;;;5.70;99.90;;;;;;5010842;28;20442;-68
2022/01/23 06:39:31;;;;;;;57.87;36.63;;;5.80;99.90;;;;;;5014390;28;20080;-69
2022/01/23 06:41:57;;;;;;;63.03;34.47;;;5.70;99.90;;;;;;5010628;28;20021;-68
2022/01/23 06:44:24;;;;;;;54.80;32.53;;;4.50;99.90;;;;;;5009606;28;20103;-68
2022/01/23 06:46:50;;;;;;;51.87;32.03;;;5.80;99.90;;;;;;5010649;28;20512;-68
2022/01/23 06:49:16;;;;;;;56.03;33.30;;;5.30;99.90;;;;;;5010818;28;20026;-68
2022/01/23 06:51:42;;;;;;;74.30;37.20;;;5.80;99.90;;;;;;5014610;28;20044;-68
2022/01/23 06:54:08;;;;;;;61.83;36.43;;;;;;;;;;5010717;28;20061;-68
2022/01/23 06:56:34;;;;;;;64.70;37.40;;;5.90;99.90;;;;;;5009646;28;20394;-68
2022/01/23 06:58:59;;;;;;;59.30;33.17;;;5.80;99.90;;;;;;5010173;28;20022;-68
2022/01/23 07:01:25;;;;;;;86.13;41.27;;;5.70;99.90;;;;;;5010176;28;20360;-68
2022/01/23 07:03:51;;;;;;;79.03;41.00;;;5.70;99.90;;;;;;5010058;28;20030;-68
2022/01/23 07:06:16;;;;;;;66.63;38.10;;;5.70;99.90;;;;;;5012479;28;20036;-68
2022/01/23 07:08:42;;;;;;;60.63;38.00;;;5.80;99.90;;;;;;5009646;28;20908;-68
2022/01/23 07:11:07;;;;;;;63.70;37.53;;;5.80;99.90;;;;;;5009685;28;20037;-69
2022/01/23 07:13:33;;;;;;;58.97;34.70;;;5.80;99.90;;;;;;5008889;28;20049;-68
2022/01/23 07:15:58;;;;;;;63.63;37.20;;;5.70;99.90;;;;;;5010151;28;20061;-68
2022/01/23 07:18:25;;;;;;;52.83;32.63;;;;;;;;;;5009554;28;20022;-68
2022/01/23 07:20:50;;;;;;;62.57;37.27;;;;;;;;;;5010249;28;20458;-68
2022/01/23 07:23:22;;;;;;;59.83;35.93;;;5.70;99.90;;;;;;5010210;28;20026;-68
2022/01/23 07:25:48;;;;;;;59.37;33.63;;;5.80;99.90;;;;;;5022348;28;20815;-68
2022/01/23 07:28:17;;;;;;;70.90;37.20;;;;;;;;;;5028884;28;20030;-68
2022/01/23 07:30:56;;;;;;;66.83;36.47;;;5.90;99.90;;;;;;5028107;28;20025;-68
2022/01/23 07:33:22;;;;;;;56.47;31.53;;;;;;;;;;5028801;28;20495;-68
2022/01/23 07:35:48;;;;;;;55.40;33.37;;;;;;;;;;5028373;28;20030;-68
2022/01/23 07:38:18;;;;;;;60.83;34.87;;;5.80;99.90;;;;;;5026422;28;20021;-68
2022/01/23 07:40:50;;;;;;;90.90;40.70;;;5.70;99.90;;;;;;5008604;28;20023;-68
2022/01/23 07:43:16;;;;;;;56.67;35.77;;;5.90;99.90;;;;;;5013367;28;20105;-68
2022/01/23 07:45:43;;;;;;;50.57;31.57;;;5.90;99.90;;;;;;5009087;28;20196;-68
2022/01/23 07:48:09;;;;;;;59.53;33.73;;;5.80;99.90;;;;;;5009640;28;20065;-68
2022/01/23 07:50:35;;;;;;;54.67;32.43;;;5.80;99.90;;;;;;5009002;28;20030;-68
2022/01/23 07:53:01;;;;;;;55.73;34.30;;;5.80;99.90;;;;;;5009406;28;20042;-68
2022/01/23 07:55:27;;;;;;;49.10;28.67;;;;;;;;;;5008796;28;20080;-68
2022/01/23 07:57:53;;;;;;;61.30;36.20;;;5.90;99.90;;;;;;5011551;28;20084;-68
2022/01/23 08:00:20;;;;;;;62.47;36.83;;;5.90;99.90;;;;;;5009794;28;20025;-68
2022/01/23 08:02:46;;;;;;;57.97;34.57;;;;;;;;;;5008550;28;20475;-68
2022/01/23 08:05:12;;;;;;;56.23;34.53;;;5.90;99.90;;;;;;5009479;28;20455;-68
2022/01/23 08:07:38;;;;;;;61.77;34.40;;;5.90;99.90;;;;;;5008859;28;20060;-68
2022/01/23 08:10:06;;;;;;;62.67;35.80;;;5.90;99.90;;;;;;5008762;28;20205;-68
2022/01/23 08:12:33;;;;;;;58.30;34.20;;;;;;;;;;5014573;28;20062;-68
2022/01/23 08:15:00;;;;;;;50.70;31.17;;;6.00;99.90;;;;;;5009005;28;20030;-68
2022/01/23 08:17:26;;;;;;;62.43;37.87;;;6.10;99.90;;;;;;5021467;28;20509;-68
2022/01/23 08:19:53;;;;;;;67.80;39.43;;;6.00;99.90;;;;;;5027830;28;20045;-68
2022/01/23 08:22:21;;;;;;;69.37;39.37;;;6.20;99.90;;;;;;5028132;28;20022;-68
2022/01/23 08:24:47;;;;;;;72.57;40.10;;;;;;;;;;5027007;28;20079;-68
2022/01/23 08:27:12;;;;;;;85.63;45.73;;;6.10;99.90;;;;;;5004117;28;20057;-68
2022/01/23 08:29:38;;;;;;;72.63;39.70;;;;;;;;;;5008420;28;20026;-68
2022/01/23 08:32:05;;;;;;;59.43;34.73;;;;;;;;;;5008820;28;20041;-68
2022/01/23 08:34:31;;;;;;;60.73;37.10;;;;;;;;;;5008240;28;20075;-68
2022/01/23 08:36:56;;;;;;;52.90;33.10;;;6.10;99.90;;;;;;4990989;28;20034;-68
2022/01/23 08:39:24;;;;;;;62.30;36.33;;;;;;;;;;5008226;28;20037;-68
2022/01/23 08:41:50;;;;;;;59.70;35.77;;;6.10;99.90;;;;;;5010985;28;20622;-68
2022/01/23 08:44:18;;;;;;;60.40;35.57;;;5.90;99.90;;;;;;5009031;28;20030;-68
2022/01/23 08:46:44;;;;;;;65.33;36.50;;;6.40;99.90;;;;;;5008048;28;20355;-68
2022/01/23 08:49:10;;;;;;;67.13;37.90;;;;;;;;;;5008243;28;20034;-68
2022/01/23 08:51:36;;;;;;;56.97;34.80;;;6.40;99.90;;;;;;5009434;28;20164;-68
2022/01/23 08:54:03;;;;;;;48.83;33.67;;;6.40;99.90;;;;;;5007992;28;20022;-68
2022/01/23 08:56:29;;;;;;;59.03;34.10;;;6.50;99.90;;;;;;5007498;28;20022;-68
2022/01/23 08:58:55;;;;;;;57.67;33.87;;;6.50;99.90;;;;;;5008679;28;20018;-68
2022/01/23 09:01:20;;;;;;;57.03;33.47;;;6.40;99.90;;;;;;5008420;28;20114;-68
2022/01/23 09:03:46;;;;;;;55.23;30.57;;;;;;;;;;5007661;28;20114;-68
2022/01/23 09:06:12;;;;;;;60.47;34.13;;;6.60;99.90;;;;;;5009883;28;20022;-68
2022/01/23 09:08:38;;;;;;;54.13;32.60;;;6.40;99.90;;;;;;5011465;28;20030;-66
2022/01/23 09:11:24;;;;;;;49.67;30.93;;;6.50;99.90;;;;;;5007893;28;20049;-66
2022/01/23 09:16:16;;;;;;;41.97;26.17;;;6.60;99.90;;;;;;5008301;28;20407;-67
2022/01/23 09:18:42;;;;;;;47.03;30.73;;;7.00;99.90;;;;;;5007763;28;20302;-67
2022/01/23 09:21:08;;;;;;;44.63;28.70;;;;;;;;;;5008088;28;20038;-67
2022/01/23 09:23:34;;;;;;;62.30;37.00;;;6.60;99.90;;;;;;5013178;28;20033;-67
2022/01/23 09:26:07;;;;;;;64.90;35.87;;;6.60;99.90;;;;;;5008047;28;20037;-67
2022/01/23 09:28:33;;;;;;;59.83;34.47;;;6.60;99.90;;;;;;5007655;28;20068;-66
2022/01/23 09:31:00;;;;;;;57.80;34.30;;;6.70;99.90;;;;;;5008059;28;20022;-66
2022/01/23 09:33:28;;;;;;;51.07;31.90;;;6.50;99.90;;;;;;5007830;28;20049;-66
2022/01/23 09:35:53;;;;;;;49.37;30.87;;;6.70;99.90;;;;;;5007771;28;20033;-66
2022/01/23 09:38:19;;;;;;;55.37;31.80;;;;;;;;;;5009281;28;20466;-67
2022/01/23 09:40:46;;;;;;;52.47;30.80;;;;;;;;;;5007468;28;20335;-67
2022/01/23 09:43:19;;;;;;;56.57;33.83;;;6.60;99.90;;;;;;5008059;28;20494;-67
2022/01/23 09:45:47;;;;;;;52.35;32.10;;;6.50;99.90;;;;;;4989592;28;20057;-67
2022/01/23 09:48:15;;;;;;;48.57;30.17;;;6.40;99.90;;;;;;5014598;28;20123;-67
2022/01/23 09:50:43;;;;;;;45.00;28.97;;;6.80;99.90;;;;;;5006890;28;20049;-67
2022/01/23 09:53:09;;;;;;;45.60;29.13;;;;;;;;;;5007099;28;20421;-67
2022/01/23 09:55:36;;;;;;;44.67;29.23;;;6.90;99.90;;;;;;5006686;28;20045;-68
2022/01/23 09:58:02;;;;;;;41.07;26.10;;;;;;;;;;5007581;28;20044;-67
2022/01/23 10:00:30;;;;;;;41.30;27.60;;;6.80;99.90;;;;;;5007964;28;20026;-67
2022/01/23 10:02:57;;;;;;;35.73;24.37;;;6.90;99.90;;;;;;5025181;28;20492;-67
2022/01/23 10:05:23;;;;;;;36.67;24.50;;;;;;;;;;5029205;28;20474;-67
2022/01/23 10:07:49;;;;;;;35.20;24.43;;;6.70;99.90;;;;;;5029447;28;20032;-67
2022/01/23 10:10:20;;;;;;;37.30;25.03;;;6.90;99.90;;;;;;5030560;28;20036;-67
2022/01/23 10:13:05;;;;;;;33.13;24.10;;;7.00;99.90;;;;;;5029578;28;20046;-67
2022/01/23 10:15:32;;;;;;;35.83;24.17;;;7.40;99.90;;;;;;5011462;28;20494;-67
2022/01/23 10:17:58;;;;;;;36.70;23.93;;;;;;;;;;5030044;28;20021;-67
2022/01/23 10:20:25;;;;;;;37.80;25.70;;;7.10;99.90;;;;;;5029499;28;20025;-67
2022/01/23 10:22:52;;;;;;;35.77;24.57;;;7.20;99.90;;;;;;5018136;28;20026;-67
2022/01/23 10:25:24;;;;;;;37.23;23.63;;;7.20;99.90;;;;;;5015604;28;20037;-67
2022/01/23 10:27:50;;;;;;;35.97;23.57;;;7.30;99.90;;;;;;5017163;28;20018;-67
2022/01/23 10:30:20;;;;;;;42.77;22.27;;;7.40;99.90;;;;;;5019202;28;20036;-67
2022/01/23 10:32:57;;;;;;;32.23;22.23;;;7.40;99.90;;;;;;5011022;28;20037;-67
2022/01/23 10:35:23;;;;;;;35.47;24.03;;;;;;;;;;5029212;28;20026;-67
2022/01/23 10:37:51;;;;;;;30.97;20.77;;;;;;;;;;5029486;28;20025;-67
2022/01/23 10:40:31;;;;;;;33.00;22.37;;;7.60;99.90;;;;;;5029873;28;20029;-67
2022/01/23 10:46:38;;;;;;;27.13;19.33;;;7.80;99.90;;;;;;5020496;28;20032;-67
2022/01/23 10:48:35;;;;;;;23.92;16.08;;;7.50;99.90;;;;;;5026890;28;20048;-67
2022/01/23 10:51:23;;;;;;;21.17;15.93;;;7.60;99.90;;;;;;5027110;28;20436;-67
2022/01/23 10:54:02;;;;;;;18.87;14.30;;;7.70;99.90;;;;;;5028298;28;20037;-67
2022/01/23 10:56:31;;;;;;;16.07;11.37;;;7.50;99.90;;;;;;5028358;28;20026;-67
2022/01/23 10:59:00;;;;;;;19.37;12.33;;;7.70;99.90;;;;;;5017526;28;20076;-67
2022/01/23 11:01:27;;;;;;;13.63;10.53;;;7.70;99.90;;;;;;5010164;28;20168;-67
2022/01/23 11:04:13;;;;;;;10.07;7.20;;;7.80;99.90;;;;;;5024743;28;20128;-67
2022/01/23 11:07:03;;;;;;;8.63;5.90;;;7.90;99.90;;;;;;5010950;28;20550;-67
2022/01/23 11:09:32;;;;;;;5.63;3.67;;;8.40;99.90;;;;;;5009232;28;20422;-67
2022/01/23 11:12:03;;;;;;;3.33;2.07;;;7.90;99.90;;;;;;5027804;28;20366;-67
2022/01/23 11:17:23;;;;;;;3.13;1.63;;;8.20;99.90;;;;;;5029098;28;20359;-67
2022/01/23 11:19:59;;;;;;;2.13;1.20;;;8.50;99.90;;;;;;5027660;28;20579;-67
2022/01/23 11:22:32;;;;;;;3.47;1.50;;;8.40;99.90;;;;;;5007470;28;20091;-67
2022/01/23 11:25:01;;;;;;;2.83;1.73;;;8.30;99.90;;;;;;4995524;28;20130;-67
2022/01/23 11:27:38;;;;;;;2.60;1.73;;;8.30;99.90;;;;;;5028781;28;20025;-67
2022/01/23 11:30:08;;;;;;;2.20;1.80;;;8.20;99.90;;;;;;5014046;28;20026;-67
2022/01/23 11:32:39;;;;;;;3.07;2.07;;;8.30;99.90;;;;;;5008760;28;20116;-67
2022/01/23 11:35:14;;;;;;;2.90;1.60;;;8.10;99.90;;;;;;4992024;28;20402;-67
2022/01/23 11:37:50;;;;;;;2.87;1.20;;;8.10;99.90;;;;;;5009193;28;20072;-67
2022/01/23 11:50:39;;;;;;;1.60;0.80;;;8.10;99.90;;;;;;5010288;28;20040;-67
2022/01/23 11:53:55;;;;;;;0.60;0.50;;;8.20;99.90;;;;;;5009468;28;20038;-68
2022/01/23 11:59:01;;;;;;;0.10;0.10;;;8.10;99.90;;;;;;5010023;28;20119;-68
2022/01/23 12:01:27;;;;;;;0.30;0.20;;;;;;;;;;5008856;28;20865;-68
2022/01/23 12:04:08;;;;;;;0.30;0.30;;;8.20;99.90;;;;;;5016792;28;20509;-68
2022/01/23 12:06:36;;;;;;;1.40;0.90;;;8.00;99.90;;;;;;5008716;28;20160;-67
2022/01/23 12:09:14;;;;;;;2.00;1.10;;;8.20;99.90;;;;;;5009148;28;20033;-69
2022/01/23 12:11:53;;;;;;;2.93;1.07;;;7.80;99.90;;;;;;5010668;28;20036;-68
2022/01/23 12:17:05;;;;;;;3.63;0.77;;;8.20;99.90;;;;;;5008469;28;20030;-68
2022/01/23 12:19:56;;;;;;;3.27;1.53;;;8.40;99.90;;;;;;5021580;28;20136;-68
2022/01/23 12:22:26;;;;;;;1.23;0.93;;;8.20;99.90;;;;;;5024595;28;20116;-68
2022/01/23 12:24:55;;;;;;;1.33;0.80;;;8.30;99.90;;;;;;4990698;28;20064;-68
2022/01/23 12:27:27;;;;;;;1.83;0.90;;;8.50;99.90;;;;;;4991422;28;20414;-68
2022/01/23 12:30:10;;;;;;;1.40;0.70;;;8.40;99.90;;;;;;5008687;28;20410;-68
2022/01/23 12:32:36;;;;;;;1.57;0.60;;;7.80;99.90;;;;;;5020600;28;20056;-67
2022/01/23 12:35:05;;;;;;;2.40;0.60;;;8.50;99.90;;;;;;5008332;28;20061;-68
2022/01/23 12:37:55;;;;;;;0.50;0.33;;;8.30;99.90;;;;;;5010880;28;20065;-67
2022/01/23 12:40:36;;;;;;;0.90;0.50;;;8.20;99.90;;;;;;5009160;28;20243;-68
2022/01/23 12:43:09;;;;;;;0.80;0.40;;;8.30;99.90;;;;;;5016447;28;20017;-67
2022/01/23 12:45:58;;;;;;;1.07;0.37;;;8.40;99.90;;;;;;5012241;28;20026;-67
2022/01/23 12:48:29;;;;;;;0.70;0.40;;;8.60;99.90;;;;;;5009624;28;20491;-67
2022/01/23 12:50:59;;;;;;;0.40;0.30;;;8.20;99.90;;;;;;5021610;28;20057;-67
2022/01/23 12:53:41;;;;;;;0.57;0.37;;;8.20;99.90;;;;;;5024379;28;20032;-67
2022/01/23 12:56:10;;;;;;;0.97;0.30;;;8.00;99.90;;;;;;5007415;28;20034;-67
2022/01/23 12:58:36;;;;;;;0.50;0.30;;;8.00;99.90;;;;;;5026593;28;20024;-67
2022/01/23 13:01:05;;;;;;;0.53;0.30;;;8.20;99.90;;;;;;5025340;28;20025;-67
2022/01/23 13:03:31;;;;;;;1.63;0.40;;;;;;;;;;5025142;28;20088;-67
2022/01/23 13:05:57;;;;;;;1.13;0.40;;;8.20;99.90;;;;;;5023658;28;20029;-67
2022/01/23 13:08:28;;;;;;;1.00;0.43;;;8.10;99.90;;;;;;5026452;28;20065;-67
2022/01/23 13:13:37;;;;;;;1.90;0.70;;;8.00;99.90;;;;;;5007637;28;20434;-68
2022/01/23 13:32:30;;;;;;;1.03;0.63;;;8.00;99.90;;;;;;5007718;28;20072;-68
2022/01/23 13:35:03;;;;;;;1.67;1.13;;;8.00;99.90;;;;;;5020457;28;20112;-68
2022/01/23 13:37:34;;;;;;;1.47;0.90;;;8.20;99.90;;;;;;5011543;28;20054;-68
2022/01/23 13:40:24;;;;;;;3.87;1.00;;;8.20;99.90;;;;;;5012209;28;20441;-67
2022/01/23 13:47:53;;;;;;;1.83;0.90;;;8.00;99.90;;;;;;5011419;28;20026;-67
2022/01/23 13:49:20;;;;;;;1.77;1.10;;;8.20;99.90;;;;;;5025457;28;20041;-67
2022/01/23 13:57:37;;;;;;;1.90;1.10;;;8.10;99.90;;;;;;5031307;28;20091;-69
2022/01/23 14:00:02;;;;;;;1.73;1.23;;;8.10;99.90;;;;;;5028192;28;20040;-68
2022/01/23 14:02:37;;;;;;;2.70;1.47;;;7.90;99.90;;;;;;5028402;28;20112;-68
2022/01/23 14:05:11;;;;;;;2.93;1.70;;;8.10;99.90;;;;;;5030312;28;20198;-68
2022/01/23 14:07:39;;;;;;;3.10;1.90;;;8.10;99.90;;;;;;5030038;28;20682;-68
2022/01/23 14:10:39;;;;;;;3.50;2.20;;;8.10;99.90;;;;;;5030424;28;20171;-68
2022/01/23 14:13:06;;;;;;;2.80;2.20;;;8.10;99.90;;;;;;5009848;28;20833;-68
2022/01/23 14:15:32;;;;;;;2.73;1.80;;;8.30;99.90;;;;;;5012684;28;20026;-68
2022/01/23 14:18:05;;;;;;;2.80;1.80;;;8.10;99.90;;;;;;5012728;28;20038;-68
2022/01/23 14:20:39;;;;;;;1.77;1.40;;;8.00;99.90;;;;;;5013776;28;20040;-68
2022/01/23 14:23:16;;;;;;;2.95;1.88;;;7.90;99.90;;;;;;5011408;28;20022;-68
2022/01/23 14:25:47;;;;;;;4.20;2.10;;;8.00;99.90;;;;;;5010749;28;20022;-68
2022/01/23 14:28:15;;;;;;;3.30;2.10;;;8.10;99.90;;;;;;5010673;28;20071;-68
2022/01/23 14:30:49;;;;;;;3.43;2.27;;;8.00;99.90;;;;;;5010656;28;20029;-69
2022/01/23 14:33:20;;;;;;;;;;;7.20;99.90;;;;;;5022985;28;20041;-68
2022/01/23 14:35:46;;;;;;;2.73;1.80;;;;;;;;;;5015853;28;20051;-67
2022/01/23 14:38:14;;;;;;;2.77;1.90;;;7.90;99.90;;;;;;5009361;28;20026;-68
2022/01/23 14:40:53;;;;;;;2.90;1.90;;;8.20;99.90;;;;;;5016568;28;20150;-68
2022/01/23 14:43:19;;;;;;;5.13;2.80;;;;;;;;;;5025355;28;20033;-68
2022/01/23 14:45:48;;;;;;;3.10;2.07;;;7.80;99.90;;;;;;5028034;28;20034;-68
2022/01/23 14:48:15;;;;;;;3.73;2.43;;;7.90;99.90;;;;;;5027611;28;20026;-68
2022/01/23 14:50:52;;;;;;;3.57;2.63;;;7.90;99.90;;;;;;5025968;28;20133;-68
2022/01/23 14:53:22;;;;;;;4.20;2.70;;;7.90;99.90;;;;;;5026616;28;20029;-68
2022/01/23 14:55:57;;;;;;;4.73;3.20;;;7.70;99.90;;;;;;5020027;28;20022;-68
2022/01/23 14:58:24;;;;;;;4.57;2.30;;;7.90;99.90;;;;;;4994651;28;20041;-68
2022/01/23 15:00:52;;;;;;;3.27;2.50;;;7.90;99.90;;;;;;5009468;28;20124;-68
2022/01/23 15:03:19;;;;;;;4.73;3.13;;;7.70;99.90;;;;;;5012931;28;20112;-68
2022/01/23 15:05:44;;;;;;;3.90;3.00;;;7.90;99.90;;;;;;5008954;28;20018;-69
2022/01/23 15:08:13;;;;;;;4.47;3.50;;;7.60;99.90;;;;;;5024219;28;20025;-68
2022/01/23 15:10:44;;;;;;;4.33;3.10;;;7.80;99.90;;;;;;5019569;28;20010;-68
2022/01/23 15:13:11;;;;;;;4.00;2.77;;;7.90;99.90;;;;;;5014456;28;20766;-68
2022/01/23 15:15:37;;;;;;;4.23;3.27;;;7.60;99.90;;;;;;5010609;28;20426;-68
2022/01/23 15:18:03;;;;;;;5.80;2.97;;;7.70;99.90;;;;;;5009094;28;20106;-68
2022/01/23 15:20:31;;;;;;;3.80;2.77;;;;;;;;;;5013552;28;20151;-69
2022/01/23 15:22:57;;;;;;;3.63;2.17;;;7.30;99.90;;;;;;5009792;28;20022;-68
2022/01/23 15:25:24;;;;;;;2.60;1.87;;;;;;;;;;5011387;28;20032;-68
2022/01/23 15:27:50;;;;;;;3.20;1.83;;;;;;;;;;5008849;28;20033;-68
2022/01/23 15:30:16;;;;;;;2.83;2.13;;;7.50;99.90;;;;;;5011275;28;20029;-68
2022/01/23 15:32:45;;;;;;;3.87;2.77;;;7.60;99.90;;;;;;5010191;28;20051;-68
2022/01/23 15:35:12;;;;;;;3.93;2.00;;;7.50;99.90;;;;;;5015412;28;20130;-68
2022/01/23 15:37:38;;;;;;;2.67;1.83;;;7.70;99.90;;;;;;5008678;28;20022;-68
2022/01/23 15:40:10;;;;;;;3.00;2.23;;;7.80;99.90;;;;;;4990980;28;20383;-68
2022/01/23 15:42:36;;;;;;;4.33;2.70;;;7.20;99.90;;;;;;5008773;28;20026;-68
2022/01/23 15:45:03;;;;;;;4.37;2.73;;;7.50;99.90;;;;;;5010017;28;20513;-68
2022/01/23 15:47:28;;;;;;;4.97;2.77;;;7.50;99.90;;;;;;5011461;28;20014;-68
2022/01/23 15:49:54;;;;;;;3.33;2.67;;;7.40;99.90;;;;;;4992907;28;20110;-68
2022/01/23 15:52:20;;;;;;;4.30;2.97;;;;;;;;;;5011782;28;20044;-68
2022/01/23 15:54:46;;;;;;;4.63;3.53;;;;;;;;;;5008047;28;20025;-68
2022/01/23 15:57:12;;;;;;;5.47;3.63;;;;;;;;;;5013513;28;20030;-68
2022/01/23 15:59:37;;;;;;;6.40;3.70;;;7.30;99.90;;;;;;5010491;28;20395;-68
2022/01/23 16:02:07;;;;;;;4.53;3.60;;;7.40;99.90;;;;;;5013692;28;20057;-68
2022/01/23 16:04:35;;;;;;;4.37;3.00;;;;;;;;;;5009056;28;20033;-68
2022/01/23 16:07:03;;;;;;;4.13;2.60;;;7.50;99.90;;;;;;5010803;28;20044;-68
2022/01/23 16:09:28;;;;;;;5.80;3.33;;;7.10;99.90;;;;;;5027414;28;20534;-69
2022/01/23 16:11:54;;;;;;;6.10;3.73;;;7.40;99.90;;;;;;5010060;28;20041;-68
2022/01/23 16:14:20;;;;;;;3.40;2.90;;;;;;;;;;5028568;28;20060;-69
2022/01/23 16:16:47;;;;;;;4.00;3.47;;;7.30;99.90;;;;;;5027286;28;20116;-68
2022/01/23 16:19:13;;;;;;;12.33;8.70;;;;;;;;;;5026967;28;20041;-69
2022/01/23 16:21:41;;;;;;;4.90;3.83;;;;;;;;;;5008089;28;20120;-68
2022/01/23 16:24:06;;;;;;;4.87;2.93;;;;;;;;;;5008136;28;20054;-68
2022/01/23 16:26:32;;;;;;;4.87;3.17;;;7.20;99.90;;;;;;5007844;28;20442;-68
2022/01/23 16:28:58;;;;;;;4.10;2.73;;;;;;;;;;5008419;28;20072;-68